createdAt,value
2022-10-25T00:01:32.214Z,10.27
2022-10-25T00:04:01.275Z,10.50
2022-10-25T00:06:29.711Z,9.98
2022-10-25T00:08:59.287Z,10.07
2022-10-25T00:11:29.782Z,10.21
2022-10-25T00:13:59.341Z,9.56
2022-10-25T00:16:29.533Z,9.54
2022-10-25T00:18:58.028Z,9.97
2022-10-25T00:21:26.436Z,10.13
2022-10-25T00:23:55.407Z,10.34
2022-10-25T00:26:23.786Z,9.62
2022-10-25T00:28:54.765Z,9.76
2022-10-25T00:31:23.622Z,9.54
2022-10-25T00:33:51.891Z,9.41
2022-10-25T00:36:22.327Z,10.10
2022-10-25T00:38:50.911Z,9.51
2022-10-25T00:41:21.760Z,9.85
2022-10-25T00:43:51.953Z,9.24
2022-10-25T00:46:26.157Z,10.10
2022-10-25T00:49:06.009Z,9.56
2022-10-25T00:51:37.499Z,9.98
2022-10-25T00:54:06.397Z,10.00
2022-10-25T00:56:35.239Z,9.27
2022-10-25T00:59:06.044Z,9.27
2022-10-25T01:01:35.157Z,9.96
2022-10-25T01:04:06.290Z,9.21
2022-10-25T01:06:47.005Z,9.67
2022-10-25T01:09:20.267Z,9.03
2022-10-25T05:48:35.780Z,8.97
2022-10-25T05:51:36.577Z,9.14
2022-10-25T05:54:07.621Z,9.31
2022-10-25T05:56:36.525Z,9.49
2022-10-25T05:59:09.340Z,9.56
2022-10-25T06:01:40.130Z,9.62
2022-10-25T06:04:08.615Z,10.05
2022-10-25T06:06:37.601Z,10.58
2022-10-25T06:09:06.834Z,11.19
2022-10-25T06:11:35.297Z,11.83
2022-10-25T06:14:04.092Z,12.36
2022-10-25T06:16:32.510Z,12.47
2022-10-25T06:19:00.798Z,12.14
2022-10-25T06:21:29.814Z,12.70
2022-10-25T06:23:59.000Z,13.03
2022-10-25T06:26:28.582Z,13.33
2022-10-25T06:28:58.857Z,13.51
2022-10-25T06:31:27.746Z,13.67
2022-10-25T06:33:56.718Z,14.02
2022-10-25T06:36:25.302Z,14.54
2022-10-25T06:38:53.749Z,15.22
2022-10-25T06:41:27.953Z,15.57
2022-10-25T06:43:56.629Z,16.14
2022-10-25T06:46:29.392Z,16.64
2022-10-25T06:48:58.320Z,16.98
2022-10-25T06:51:27.263Z,17.52
2022-10-25T06:53:59.430Z,17.80
2022-10-25T06:56:28.352Z,18.12
2022-10-25T06:58:56.906Z,19.07
2022-10-25T07:01:25.803Z,19.79
2022-10-25T07:03:55.939Z,20.58
2022-10-25T07:06:29.652Z,20.93
2022-10-25T07:08:59.208Z,21.63
2022-10-25T07:11:29.158Z,22.43
2022-10-25T07:13:58.985Z,23.47
2022-10-25T07:16:28.120Z,24.05
2022-10-25T07:19:03.847Z,24.73
2022-10-25T07:21:32.670Z,24.77
2022-10-25T07:24:00.946Z,24.31
2022-10-25T07:26:31.328Z,24.64
2022-10-25T07:29:00.711Z,24.95
2022-10-25T07:31:30.826Z,25.06
2022-10-25T07:34:01.056Z,25.25
2022-10-25T07:36:29.419Z,26.16
2022-10-25T07:38:57.940Z,26.71
2022-10-25T07:41:26.551Z,27.01
2022-10-25T07:43:55.741Z,27.49
2022-10-25T07:46:24.249Z,27.67
2022-10-25T07:48:52.892Z,28.22
2022-10-25T07:51:21.424Z,28.30
2022-10-25T07:53:50.288Z,27.42
2022-10-25T07:56:23.222Z,28.19
2022-10-25T07:58:52.804Z,28.80
2022-10-25T08:01:27.994Z,29.57
2022-10-25T08:03:56.830Z,30.44
2022-10-25T08:06:25.839Z,30.26
2022-10-25T08:08:54.302Z,29.95
2022-10-25T08:11:23.330Z,29.53
2022-10-25T08:13:51.690Z,29.19
2022-10-25T08:16:20.625Z,28.50
2022-10-25T08:18:48.979Z,27.21
2022-10-25T08:21:17.389Z,26.33
2022-10-25T08:23:45.767Z,26.00
2022-10-25T08:26:14.046Z,25.94
2022-10-25T08:28:42.538Z,26.46
2022-10-25T08:31:10.864Z,27.17
2022-10-25T08:33:40.418Z,27.24
2022-10-25T08:36:09.179Z,27.26
2022-10-25T08:38:37.554Z,26.63
2022-10-25T08:41:29.472Z,26.30
2022-10-25T08:44:39.513Z,25.87
2022-10-25T08:47:19.344Z,25.43
2022-10-25T08:49:58.214Z,24.78
2022-10-25T08:52:39.510Z,24.75
2022-10-25T08:55:28.052Z,24.67
2022-10-25T08:57:56.440Z,24.78
2022-10-25T09:00:25.086Z,24.48
2022-10-25T09:03:00.065Z,24.09
2022-10-25T09:05:40.426Z,23.67
2022-10-25T09:08:20.761Z,24.35
2022-10-25T09:11:08.160Z,24.17
2022-10-25T09:13:42.128Z,23.89
2022-10-25T09:16:17.938Z,23.84
2022-10-25T09:18:50.017Z,23.59
2022-10-25T09:21:22.953Z,24.22
2022-10-25T09:23:59.133Z,24.34
2022-10-25T09:26:50.249Z,24.46
2022-10-25T09:29:30.142Z,24.10
2022-10-25T09:32:01.700Z,24.61
2022-10-25T09:34:33.502Z,24.10
2022-10-25T09:37:18.216Z,24.05
2022-10-25T09:39:49.912Z,24.40
2022-10-25T09:42:22.668Z,24.08
2022-10-25T09:44:59.779Z,24.41
2022-10-25T09:48:00.082Z,24.93
2022-10-25T09:50:30.974Z,23.99
2022-10-25T09:53:18.837Z,24.60
2022-10-25T09:55:56.585Z,24.73
2022-10-25T09:58:32.843Z,25.04
2022-10-25T10:01:02.842Z,24.68
2022-10-25T10:03:33.214Z,25.17
2022-10-25T10:06:03.859Z,25.04
2022-10-25T10:08:33.267Z,25.18
2022-10-25T10:11:01.783Z,25.43
2022-10-25T10:13:45.467Z,25.13
2022-10-25T10:16:24.384Z,24.69
2022-10-25T10:18:52.856Z,25.25
2022-10-25T10:21:22.392Z,25.35
2022-10-25T10:23:52.899Z,25.17
2022-10-25T10:26:28.631Z,24.83
2022-10-25T10:29:15.432Z,25.52
2022-10-25T10:31:48.924Z,25.50
2022-10-25T10:34:24.508Z,25.57
2022-10-25T10:37:15.339Z,25.29
2022-10-25T10:40:02.727Z,25.62
2022-10-25T10:42:34.302Z,25.63
2022-10-25T10:45:13.031Z,25.56
2022-10-25T10:47:51.001Z,25.92
2022-10-25T10:50:25.956Z,25.56
2022-10-25T10:52:58.152Z,25.27
2022-10-25T10:55:37.983Z,25.79
2022-10-25T10:58:18.120Z,26.07
2022-10-25T11:01:04.176Z,25.91
2022-10-25T11:03:48.925Z,25.73
2022-10-25T11:06:36.906Z,25.01
2022-10-25T11:09:18.216Z,25.27
2022-10-25T11:12:06.486Z,25.60
2022-10-25T11:14:34.962Z,25.30
2022-10-25T11:17:17.760Z,25.28
2022-10-25T11:20:13.315Z,25.25
2022-10-25T11:23:04.191Z,25.25
2022-10-25T11:25:33.808Z,25.63
2022-10-25T11:28:08.206Z,24.84
2022-10-25T11:31:01.805Z,25.55
2022-10-25T11:34:01.064Z,25.62
2022-10-25T11:36:55.388Z,25.79
2022-10-25T11:39:29.983Z,26.10
2022-10-25T11:42:31.969Z,25.56
2022-10-25T11:45:28.996Z,25.33
2022-10-25T11:48:09.225Z,25.27
2022-10-25T11:50:44.935Z,25.68
2022-10-25T11:53:20.010Z,26.00
2022-10-25T11:56:14.508Z,26.21
2022-10-25T11:58:58.746Z,25.36
2022-10-25T12:01:45.511Z,25.12
2022-10-25T12:04:32.782Z,25.54
2022-10-25T12:07:30.508Z,25.33
2022-10-25T12:10:01.198Z,25.89
2022-10-25T12:12:46.748Z,25.98
2022-10-25T12:15:36.386Z,26.01
2022-10-25T12:18:06.205Z,26.08
2022-10-25T12:23:13.185Z,26.21
2022-10-25T12:25:45.577Z,25.91
2022-10-25T12:28:16.930Z,26.24
2022-10-25T12:30:45.911Z,26.72
2022-10-25T12:33:36.692Z,25.68
2022-10-25T12:36:23.587Z,26.42
2022-10-25T12:38:51.867Z,26.48
2022-10-25T12:41:23.602Z,26.49
2022-10-25T12:44:02.864Z,26.35
2022-10-25T12:46:37.057Z,26.69
2022-10-25T12:49:14.250Z,26.64
2022-10-25T12:51:51.565Z,26.54
2022-10-25T12:54:31.840Z,26.76
2022-10-25T12:57:19.958Z,25.75
2022-10-25T13:00:14.060Z,24.89
2022-10-25T13:03:07.507Z,24.14
2022-10-25T13:05:55.902Z,24.05
2022-10-25T13:08:24.396Z,24.78
2022-10-25T13:11:03.294Z,24.14
2022-10-25T13:13:33.984Z,24.44
2022-10-25T13:16:03.257Z,24.74
2022-10-25T13:18:35.424Z,24.14
2022-10-25T13:21:30.403Z,24.03
2022-10-25T13:24:00.203Z,23.40
2022-10-25T13:26:32.276Z,23.64
2022-10-25T13:29:16.616Z,23.47
2022-10-25T13:31:48.751Z,23.75
2022-10-25T13:34:20.051Z,23.46
2022-10-25T13:36:49.656Z,23.35
2022-10-25T13:39:30.561Z,23.66
2022-10-25T13:42:17.101Z,23.51
2022-10-25T13:45:33.886Z,23.49
2022-10-25T13:48:14.990Z,23.20
2022-10-25T13:50:45.596Z,22.85
2022-10-25T13:53:34.140Z,23.11
2022-10-25T13:56:09.417Z,23.09
2022-10-25T13:58:43.430Z,22.98
2022-10-25T14:01:19.677Z,23.39
2022-10-25T14:03:57.077Z,23.76
2022-10-25T14:06:38.532Z,23.45
2022-10-25T14:09:13.039Z,22.80
2022-10-25T14:11:49.890Z,23.51
2022-10-25T14:14:29.626Z,22.91
2022-10-25T14:17:10.038Z,23.45
2022-10-25T14:19:42.305Z,23.04
2022-10-25T14:22:31.965Z,23.14
2022-10-25T14:25:04.840Z,23.32
2022-10-25T14:27:34.843Z,23.20
2022-10-25T14:30:29.250Z,23.54
2022-10-25T14:33:03.944Z,23.61
2022-10-25T14:35:34.694Z,23.40
2022-10-25T14:38:03.993Z,22.44
2022-10-25T14:40:32.295Z,22.52
2022-10-25T14:43:27.394Z,22.85
2022-10-25T14:46:06.823Z,23.07
2022-10-25T14:48:35.293Z,22.90
2022-10-25T14:51:07.795Z,23.10
2022-10-25T14:53:36.845Z,22.92
2022-10-25T14:56:05.766Z,22.90
2022-10-25T14:58:43.166Z,22.84
2022-10-25T15:01:13.419Z,22.32
2022-10-25T15:03:42.951Z,22.80
2022-10-25T15:06:13.222Z,22.53
2022-10-25T15:08:41.845Z,22.29
2022-10-25T15:11:20.386Z,21.95
2022-10-25T15:13:50.752Z,22.07
2022-10-25T15:16:34.110Z,22.09
2022-10-25T15:19:19.316Z,22.14
2022-10-25T15:21:52.291Z,22.10
2022-10-25T15:24:23.520Z,21.81
2022-10-25T15:26:59.478Z,21.85
2022-10-25T15:29:43.599Z,21.92
2022-10-25T15:32:17.110Z,21.62
2022-10-25T15:35:00.040Z,21.66
2022-10-25T15:37:29.261Z,21.48
2022-10-25T15:39:58.053Z,21.45
2022-10-25T15:42:27.189Z,21.37
2022-10-25T15:44:55.839Z,21.23
2022-10-25T15:47:28.387Z,21.22
2022-10-25T15:49:56.944Z,20.91
2022-10-25T15:52:28.621Z,21.04
2022-10-25T15:54:58.321Z,20.43
2022-10-25T15:57:27.637Z,20.64
2022-10-25T15:59:56.016Z,20.65
2022-10-25T16:02:29.876Z,20.48
2022-10-25T16:04:58.338Z,20.52
2022-10-25T16:07:26.842Z,19.97
2022-10-25T16:09:56.639Z,19.90
2022-10-25T16:12:30.020Z,20.00
2022-10-25T16:14:58.489Z,19.90
2022-10-25T16:17:27.393Z,20.00
2022-10-25T16:19:56.518Z,19.91
2022-10-25T16:22:27.263Z,20.14
2022-10-25T16:24:55.908Z,16.88
2022-10-25T16:27:24.430Z,18.09
2022-10-25T16:30:00.207Z,18.81
2022-10-25T16:32:30.166Z,18.84
2022-10-25T16:34:58.713Z,19.06
2022-10-25T16:37:27.104Z,19.19
2022-10-25T16:39:57.287Z,19.12
2022-10-25T16:42:34.943Z,19.12
2022-10-25T16:45:10.724Z,19.10
2022-10-25T16:47:44.220Z,19.39
2022-10-25T16:50:13.455Z,19.41
2022-10-25T16:52:42.992Z,18.75
2022-10-25T16:55:12.545Z,18.99
2022-10-25T16:57:42.474Z,19.00
2022-10-25T17:00:12.336Z,19.07
2022-10-25T17:02:41.639Z,19.03
2022-10-25T17:05:20.340Z,19.05
2022-10-25T17:07:49.312Z,18.93
2022-10-25T17:10:19.443Z,18.96
2022-10-25T17:12:55.909Z,18.98
2022-10-25T17:15:24.770Z,18.29
2022-10-25T17:17:53.863Z,18.23
2022-10-25T17:20:22.592Z,18.00
2022-10-25T17:22:51.505Z,18.12
2022-10-25T17:25:20.033Z,18.10
2022-10-25T17:27:54.834Z,17.83
2022-10-25T17:30:23.305Z,17.76
2022-10-25T17:32:55.650Z,17.82
2022-10-25T17:35:28.683Z,18.16
2022-10-25T17:37:58.440Z,18.10
2022-10-25T17:40:27.142Z,18.31
2022-10-25T17:42:55.591Z,18.46
2022-10-25T17:45:25.672Z,18.36
2022-10-25T17:47:55.010Z,18.50
2022-10-25T17:50:23.513Z,18.34
2022-10-25T17:52:52.560Z,18.37
2022-10-25T17:55:21.044Z,18.31
2022-10-25T17:57:50.546Z,18.36
2022-10-25T18:00:21.597Z,18.48
2022-10-25T18:02:51.786Z,18.42
2022-10-25T18:05:22.000Z,18.54
2022-10-25T18:07:50.808Z,18.31
2022-10-25T18:10:19.824Z,17.99
2022-10-25T18:12:50.768Z,17.80
2022-10-25T18:15:19.764Z,17.91
2022-10-25T18:17:51.564Z,18.03
2022-10-25T18:20:20.269Z,18.08
2022-10-25T18:22:53.073Z,17.92
2022-10-25T18:25:21.918Z,17.82
2022-10-25T18:27:50.847Z,17.85
2022-10-25T18:30:19.595Z,17.56
2022-10-25T18:32:48.165Z,17.56
2022-10-25T18:35:16.631Z,17.58
2022-10-25T18:37:49.078Z,17.42
2022-10-25T18:40:18.296Z,17.09
2022-10-25T18:42:47.219Z,17.22
2022-10-25T18:45:18.816Z,17.20
2022-10-25T18:47:53.550Z,16.98
2022-10-25T18:50:22.109Z,16.65
2022-10-25T18:52:53.027Z,16.67
2022-10-25T18:55:29.480Z,16.53
2022-10-25T18:57:58.682Z,16.43
2022-10-25T19:00:28.121Z,16.50
2022-10-25T19:02:56.741Z,16.30
2022-10-25T19:05:29.422Z,15.91
2022-10-25T19:07:59.155Z,16.11
2022-10-25T19:10:27.669Z,15.73
2022-10-25T19:12:57.444Z,16.11
2022-10-25T19:15:33.279Z,15.41
2022-10-25T19:18:01.675Z,15.73
2022-10-25T19:20:30.136Z,15.88
2022-10-25T19:23:00.124Z,15.84
2022-10-25T19:25:33.525Z,15.23
2022-10-25T19:28:01.894Z,15.12
2022-10-25T19:30:34.247Z,15.52
2022-10-25T19:33:06.458Z,15.22
2022-10-25T19:35:34.985Z,15.43
2022-10-25T19:38:03.784Z,15.58
2022-10-25T19:40:32.589Z,15.61
2022-10-25T19:43:01.648Z,15.19
2022-10-25T19:45:31.107Z,14.77
2022-10-25T19:47:59.550Z,15.21
2022-10-25T19:50:29.833Z,15.28
2022-10-25T19:52:58.695Z,14.56
2022-10-25T19:55:27.785Z,14.44
2022-10-25T19:57:56.461Z,14.56
2022-10-25T20:00:24.815Z,14.51
2022-10-25T20:02:53.732Z,14.47
2022-10-25T20:05:24.290Z,14.18
2022-10-25T20:07:53.835Z,13.96
2022-10-25T20:10:22.329Z,14.26
2022-10-25T20:12:50.767Z,14.21
2022-10-25T20:15:20.618Z,14.24
2022-10-25T20:17:49.354Z,13.91
2022-10-25T20:20:17.931Z,13.80
2022-10-25T20:22:46.258Z,13.87
2022-10-25T20:27:43.985Z,13.71
2022-10-25T20:30:12.528Z,14.10
2022-10-25T20:32:41.012Z,13.56
2022-10-25T20:35:10.445Z,13.83
2022-10-25T20:37:38.824Z,13.65
2022-10-25T20:40:08.291Z,13.62
2022-10-25T20:42:43.545Z,13.50
2022-10-25T20:45:11.990Z,14.20
2022-10-25T20:47:52.538Z,14.14
2022-10-25T20:50:23.926Z,14.54
2022-10-25T20:53:09.217Z,13.74
2022-10-25T20:55:39.629Z,13.55
2022-10-25T20:58:09.557Z,13.58
2022-10-25T21:00:37.904Z,14.06
2022-10-25T21:03:06.297Z,14.15
2022-10-25T21:05:34.630Z,14.19
2022-10-25T21:08:05.842Z,14.06
2022-10-25T21:10:36.410Z,14.20
2022-10-25T21:13:04.770Z,14.07
2022-10-25T21:15:33.261Z,14.13
2022-10-25T21:18:01.811Z,14.41
2022-10-25T21:20:30.344Z,14.45
2022-10-25T21:22:58.735Z,14.51
2022-10-25T21:25:27.082Z,14.57
2022-10-25T21:27:56.250Z,14.43
2022-10-25T21:30:24.713Z,14.26
2022-10-25T21:32:54.807Z,14.48
2022-10-25T21:35:23.244Z,14.32
2022-10-25T21:37:52.050Z,14.09
2022-10-25T21:40:20.556Z,13.41
2022-10-25T21:42:49.393Z,13.46
2022-10-25T21:45:17.796Z,14.02
2022-10-25T21:47:46.448Z,14.24
2022-10-25T21:50:16.057Z,14.32
2022-10-25T21:52:44.378Z,14.33
2022-10-25T21:55:12.687Z,13.90
2022-10-25T21:57:40.907Z,13.94
2022-10-25T22:00:11.096Z,13.72
2022-10-25T22:05:12.429Z,13.43
2022-10-25T22:07:40.735Z,13.42
2022-10-25T22:10:09.496Z,13.76
2022-10-25T22:12:37.795Z,13.74
2022-10-25T22:15:06.609Z,13.48
2022-10-25T22:17:35.021Z,13.51
2022-10-25T22:20:03.447Z,13.33
2022-10-25T22:22:31.830Z,13.59
2022-10-25T22:25:00.173Z,13.54
2022-10-25T22:27:28.515Z,13.36
2022-10-25T22:29:56.837Z,13.50
2022-10-25T22:32:25.266Z,13.44
2022-10-25T22:34:53.539Z,13.10
2022-10-25T22:37:21.856Z,13.00
2022-10-25T22:39:50.132Z,12.22
2022-10-25T22:42:18.475Z,12.91
2022-10-25T22:44:47.348Z,12.92
2022-10-25T22:47:15.614Z,12.43
2022-10-25T22:49:44.016Z,11.99
2022-10-25T22:52:14.029Z,12.77
2022-10-25T22:54:42.329Z,12.96
2022-10-25T22:57:10.624Z,12.25
2022-10-25T22:59:38.900Z,12.76
2022-10-25T23:02:07.809Z,12.81
2022-10-25T23:04:36.202Z,12.58
2022-10-25T23:07:04.531Z,12.20
2022-10-25T23:09:32.882Z,12.26
2022-10-25T23:12:01.194Z,12.54
2022-10-25T23:14:29.624Z,12.36
2022-10-25T23:16:57.944Z,12.43
2022-10-25T23:19:26.283Z,12.34
2022-10-25T23:21:54.574Z,12.30
2022-10-25T23:24:22.887Z,12.24
2022-10-25T23:26:51.133Z,11.86
2022-10-25T23:29:19.516Z,12.29
2022-10-25T23:31:47.809Z,12.04
2022-10-25T23:34:16.212Z,12.32
2022-10-25T23:36:44.555Z,12.30
2022-10-25T23:39:12.902Z,12.47
2022-10-25T23:41:41.217Z,12.34
2022-10-25T23:44:09.532Z,12.37
2022-10-25T23:46:37.936Z,12.37
2022-10-25T23:49:06.317Z,12.20
2022-10-25T23:51:34.655Z,12.05
2022-10-25T23:54:03.142Z,11.53
2022-10-25T23:56:31.506Z,12.08
2022-10-25T23:58:59.860Z,11.71
